createdAt,value
2019-04-11T00:02:22.647Z,100295.20
2019-04-11T00:04:56.468Z,100296.45
2019-04-11T00:07:30.143Z,100297.68
2019-04-11T00:10:06.136Z,100301.23
2019-04-11T00:12:38.923Z,100301.28
2019-04-11T00:15:12.920Z,100299.57
2019-04-11T00:17:46.026Z,100297.53
2019-04-11T00:20:18.642Z,100301.05
2019-04-11T00:22:51.539Z,100300.36
2019-04-11T00:25:27.380Z,100298.52
2019-04-11T00:28:01.446Z,100298.02
2019-04-11T00:30:34.395Z,100300.89
2019-04-11T00:33:08.295Z,100301.13
2019-04-11T00:35:41.865Z,100305.56
2019-04-11T00:38:15.993Z,100304.45
2019-04-11T00:40:49.666Z,100300.95
2019-04-11T00:43:30.624Z,100303.06
2019-04-11T00:46:08.306Z,100299.50
2019-04-11T00:48:41.853Z,100305.50
2019-04-11T00:51:17.110Z,100304.22
2019-04-11T00:53:50.222Z,100307.38
2019-04-11T00:56:24.091Z,100304.28
2019-04-11T00:58:58.178Z,100309.28
2019-04-11T01:01:31.622Z,100307.45
2019-04-11T01:04:05.698Z,100305.97
2019-04-11T01:06:38.483Z,100309.70
2019-04-11T01:09:12.267Z,100309.44
2019-04-11T01:11:46.336Z,100310.25
2019-04-11T01:14:18.929Z,100315.42
2019-04-11T01:17:09.458Z,100312.91
2019-04-11T01:19:42.746Z,100312.30
2019-04-11T01:22:16.214Z,100312.63
2019-04-11T01:24:50.284Z,100308.94
2019-04-11T01:27:23.699Z,100315.70
2019-04-11T01:29:57.875Z,100312.46
2019-04-11T01:32:30.598Z,100313.95
2019-04-11T01:35:04.705Z,100317.55
2019-04-11T01:37:39.747Z,100318.67
2019-04-11T01:40:13.826Z,100320.98
2019-04-11T01:42:47.146Z,100323.25
2019-04-11T01:45:21.412Z,100324.10
2019-04-11T01:48:01.549Z,100319.21
2019-04-11T01:50:35.230Z,100322.28
2019-04-11T01:53:08.927Z,100324.92
2019-04-11T01:55:42.832Z,100325.41
2019-04-11T01:58:16.293Z,100324.33
2019-04-11T02:01:04.656Z,100320.36
2019-04-11T02:03:47.611Z,100328.22
2019-04-11T02:06:21.406Z,100327.80
2019-04-11T02:08:55.548Z,100333.27
2019-04-11T02:11:28.318Z,100330.38
2019-04-11T02:14:10.933Z,100332.25
2019-04-11T02:16:50.631Z,100336.22
2019-04-11T02:19:23.886Z,100345.33
2019-04-11T02:22:10.416Z,100348.41
2019-04-11T02:24:54.327Z,100348.39
2019-04-11T02:27:27.916Z,100350.47
2019-04-11T02:30:01.139Z,100352.88
2019-04-11T02:32:37.037Z,100358.55
2019-04-11T02:35:11.174Z,100360.20
2019-04-11T02:37:45.844Z,100358.86
2019-04-11T02:40:20.645Z,100355.60
2019-04-11T02:42:57.161Z,100360.88
2019-04-11T02:45:43.318Z,100362.54
2019-04-11T02:48:24.548Z,100365.44
2019-04-11T02:50:58.419Z,100371.05
2019-04-11T02:53:32.677Z,100368.92
2019-04-11T02:56:09.320Z,100367.61
2019-04-11T02:58:46.320Z,100372.05
2019-04-11T03:01:20.148Z,100373.61
2019-04-11T03:03:54.053Z,100375.09
2019-04-11T03:06:28.009Z,100374.43
2019-04-11T03:09:02.569Z,100375.05
2019-04-11T03:11:38.472Z,100374.70
2019-04-11T03:14:16.893Z,100375.34
2019-04-11T03:17:02.493Z,100375.16
2019-04-11T03:19:59.502Z,100376.10
2019-04-11T03:22:45.300Z,100372.66
2019-04-11T03:25:22.609Z,100372.87
2019-04-11T03:27:57.012Z,100376.55
2019-04-11T03:30:46.517Z,100380.72
2019-04-11T03:37:13.575Z,100377.41
2019-04-11T03:40:19.102Z,100383.84
2019-04-11T03:43:11.107Z,100386.63
2019-04-11T03:46:16.387Z,100387.00
2019-04-11T03:49:06.342Z,100387.98
2019-04-11T03:51:52.951Z,100390.73
2019-04-11T03:54:27.317Z,100389.30
2019-04-11T03:57:01.258Z,100397.65
2019-04-11T03:59:36.241Z,100392.77
2019-04-11T04:02:13.234Z,100404.53
2019-04-11T04:04:49.363Z,100399.87
2019-04-11T04:07:24.518Z,100404.20
2019-04-11T04:09:58.534Z,100404.97
2019-04-11T04:12:33.652Z,100410.28
2019-04-11T04:15:31.352Z,100405.64
2019-04-11T04:18:23.873Z,100410.90
2019-04-11T04:21:15.558Z,100412.72
2019-04-11T04:23:51.917Z,100419.44
2019-04-11T04:26:29.122Z,100422.14
2019-04-11T04:29:02.633Z,100426.30
2019-04-11T04:31:38.549Z,100427.81
2019-04-11T04:34:11.455Z,100431.02
2019-04-11T04:36:47.176Z,100432.47
2019-04-11T04:39:22.705Z,100434.02
2019-04-11T04:42:03.852Z,100442.45
2019-04-11T04:44:42.915Z,100445.48
2019-04-11T04:47:26.438Z,100449.06
2019-04-11T04:50:06.375Z,100448.03
2019-04-11T04:52:40.855Z,100455.63
2019-04-11T04:55:14.417Z,100459.22
2019-04-11T04:57:50.751Z,100465.70
2019-04-11T05:00:25.389Z,100470.59
2019-04-11T05:02:59.846Z,100471.47
2019-04-11T05:05:35.765Z,100470.75
2019-04-11T05:08:10.576Z,100472.90
2019-04-11T05:10:45.213Z,100474.82
2019-04-11T05:13:19.384Z,100475.53
2019-04-11T05:16:05.723Z,100480.80
2019-04-11T05:18:48.386Z,100478.03
2019-04-11T05:21:21.275Z,100475.64
2019-04-11T05:23:55.018Z,100473.92
2019-04-11T05:26:28.043Z,100478.75
2019-04-11T05:29:01.078Z,100473.72
2019-04-11T05:31:34.448Z,100479.69
2019-04-11T05:34:07.796Z,100479.45
2019-04-11T05:36:42.873Z,100484.36
2019-04-11T05:39:18.557Z,100483.86
2019-04-11T05:41:52.946Z,100488.98
2019-04-11T05:44:25.735Z,100483.30
2019-04-11T05:47:01.886Z,100484.61
2019-04-11T05:49:43.915Z,100483.73
2019-04-11T05:52:17.848Z,100484.88
2019-04-11T05:54:54.250Z,100492.72
2019-04-11T05:57:33.905Z,100488.08
2019-04-11T06:00:13.889Z,100493.59
2019-04-11T06:02:53.306Z,100492.42
2019-04-11T06:05:35.450Z,100495.23
2019-04-11T06:08:21.141Z,100495.61
2019-04-11T06:11:06.457Z,100492.59
2019-04-11T06:13:44.793Z,100496.31
2019-04-11T06:16:18.777Z,100500.25
2019-04-11T06:19:20.676Z,100507.57
2019-04-11T06:21:58.120Z,100506.98
2019-04-11T06:24:36.638Z,100511.03
2019-04-11T06:27:17.015Z,100511.30
2019-04-11T06:30:01.374Z,100518.80
2019-04-11T06:32:56.914Z,100518.87
2019-04-11T06:35:39.944Z,100517.28
2019-04-11T06:38:18.512Z,100523.20
2019-04-11T06:40:59.953Z,100521.61
2019-04-11T06:43:41.003Z,100525.72
2019-04-11T06:46:47.152Z,100525.44
2019-04-11T06:49:46.762Z,100530.68
2019-04-11T06:52:32.808Z,100542.14
2019-04-11T06:55:20.732Z,100538.33
2019-04-11T06:57:56.372Z,100537.09
2019-04-11T07:00:29.586Z,100534.55
2019-04-11T07:03:03.498Z,100537.46
2019-04-11T07:05:38.528Z,100535.37
2019-04-11T07:08:11.700Z,100534.30
2019-04-11T07:10:51.016Z,100536.39
2019-04-11T07:13:37.198Z,100535.20
2019-04-11T07:16:11.436Z,100529.94
2019-04-11T07:18:57.046Z,100534.72
2019-04-11T07:21:35.438Z,100533.27
2019-04-11T07:24:13.883Z,100538.16
2019-04-11T07:26:54.362Z,100541.11
2019-04-11T07:29:50.681Z,100537.77
2019-04-11T07:32:34.351Z,100535.61
2019-04-11T07:35:15.662Z,100529.80
2019-04-11T07:37:53.287Z,100532.17
2019-04-11T07:40:33.163Z,100533.69
2019-04-11T07:43:26.800Z,100536.04
2019-04-11T07:46:22.137Z,100536.28
2019-04-11T07:48:59.455Z,100534.36
2019-04-11T07:51:34.382Z,100533.53
2019-04-11T07:54:15.711Z,100541.83
2019-04-11T07:57:08.357Z,100533.98
2019-04-11T07:59:47.464Z,100533.39
2019-04-11T08:02:25.403Z,100529.03
2019-04-11T08:05:13.186Z,100534.06
2019-04-11T08:08:01.083Z,100537.87
2019-04-11T08:10:38.189Z,100540.86
2019-04-11T08:13:18.432Z,100538.73
2019-04-11T08:15:58.904Z,100540.52
2019-04-11T08:18:45.918Z,100535.81
2019-04-11T08:21:26.186Z,100536.64
2019-04-11T08:24:00.936Z,100539.97
2019-04-11T08:26:53.171Z,100538.19
2019-04-11T08:29:36.651Z,100542.97
2019-04-11T08:32:15.808Z,100541.66
2019-04-11T08:34:57.573Z,100541.68
2019-04-11T08:37:41.886Z,100539.91
2019-04-11T08:40:15.103Z,100545.72
2019-04-11T08:43:02.626Z,100544.92
2019-04-11T08:45:40.591Z,100540.94
2019-04-11T08:48:13.322Z,100543.66
2019-04-11T08:50:50.444Z,100546.87
2019-04-11T08:53:42.844Z,100546.00
2019-04-11T08:56:18.849Z,100548.73
2019-04-11T08:59:21.577Z,100548.73
2019-04-11T09:01:54.425Z,100548.20
2019-04-11T09:04:34.322Z,100538.39
2019-04-11T09:07:07.767Z,100549.34
2019-04-11T09:09:47.399Z,100542.51
2019-04-11T09:12:20.565Z,100545.63
2019-04-11T09:15:00.310Z,100547.38
2019-04-11T09:17:48.379Z,100535.70
2019-04-11T09:20:48.127Z,100541.66
2019-04-11T09:23:33.542Z,100539.81
2019-04-11T09:26:27.873Z,100535.99
2019-04-11T09:29:04.077Z,100537.36
2019-04-11T09:31:58.346Z,100534.63
2019-04-11T09:34:57.630Z,100525.10
2019-04-11T09:37:33.786Z,100532.71
2019-04-11T09:40:23.918Z,100535.48
2019-04-11T09:43:24.015Z,100527.36
2019-04-11T09:46:18.579Z,100532.95
2019-04-11T09:49:08.605Z,100523.81
2019-04-11T09:51:51.989Z,100517.55
2019-04-11T09:54:50.503Z,100521.89
2019-04-11T09:57:32.389Z,100517.34
2019-04-11T10:00:18.581Z,100518.59
2019-04-11T10:02:58.801Z,100526.55
2019-04-11T10:05:40.541Z,100523.05
2019-04-11T10:08:26.955Z,100531.66
2019-04-11T10:11:22.043Z,100528.66
2019-04-11T10:14:10.740Z,100521.05
2019-04-11T10:16:50.501Z,100519.20
2019-04-11T10:19:46.464Z,100517.80
2019-04-11T10:25:16.089Z,100524.55
2019-04-11T10:27:55.205Z,100514.44
2019-04-11T10:30:33.780Z,100511.74
2019-04-11T10:33:12.941Z,100528.86
2019-04-11T10:36:10.473Z,100526.74
2019-04-11T10:38:43.251Z,100527.09
2019-04-11T10:41:34.714Z,100527.91
2019-04-11T10:44:09.675Z,100523.38
2019-04-11T10:46:49.422Z,100527.36
2019-04-11T10:49:44.221Z,100516.55
2019-04-11T10:52:30.864Z,100527.50
2019-04-11T10:55:11.852Z,100524.19
2019-04-11T10:57:47.222Z,100525.06
2019-04-11T11:00:27.555Z,100525.63
2019-04-11T11:03:09.569Z,100531.52
2019-04-11T11:05:55.591Z,100528.37
2019-04-11T11:08:37.654Z,100525.48
2019-04-11T11:11:16.416Z,100529.39
2019-04-11T11:14:07.883Z,100524.08
2019-04-11T11:16:48.662Z,100528.35
2019-04-11T11:19:57.624Z,100528.92
2019-04-11T11:23:10.952Z,100530.92
2019-04-11T11:26:27.923Z,100527.59
2019-04-11T11:29:22.745Z,100527.34
2019-04-11T11:32:09.158Z,100529.46
2019-04-11T11:38:09.354Z,100530.12
2019-04-11T11:41:00.465Z,100535.10
2019-04-11T11:43:35.045Z,100518.00
2019-04-11T11:46:25.669Z,100527.88
2019-04-11T11:49:08.239Z,100528.64
2019-04-11T11:52:06.759Z,100531.45
2019-04-11T11:54:44.056Z,100521.88
2019-04-11T11:57:32.990Z,100510.03
2019-04-11T12:00:30.125Z,100525.89
2019-04-11T12:03:17.427Z,100530.61
2019-04-11T12:06:00.799Z,100530.91
2019-04-11T12:08:58.141Z,100514.68
2019-04-11T12:12:02.234Z,100529.30
2019-04-11T12:14:46.407Z,100529.45
2019-04-11T12:17:55.660Z,100521.03
2019-04-11T12:20:36.679Z,100523.78
2019-04-11T12:23:19.616Z,100529.44
2019-04-11T12:25:53.631Z,100529.52
2019-04-11T12:28:49.982Z,100521.97
2019-04-11T12:31:36.733Z,100523.43
2019-04-11T12:34:30.912Z,100514.45
2019-04-11T12:37:08.492Z,100518.91
2019-04-11T12:40:03.796Z,100519.61
2019-04-11T12:42:38.523Z,100513.89
2019-04-11T12:45:32.723Z,100518.42
2019-04-11T12:48:11.944Z,100515.21
2019-04-11T12:51:13.993Z,100512.50
2019-04-11T12:53:48.018Z,100516.57
2019-04-11T12:56:48.115Z,100503.92
2019-04-11T12:59:25.760Z,100500.27
2019-04-11T13:02:23.009Z,100508.09
2019-04-11T13:05:01.580Z,100503.98
2019-04-11T13:07:41.237Z,100502.77
2019-04-11T13:10:24.186Z,100497.69
2019-04-11T13:13:19.262Z,100501.00
2019-04-11T13:16:12.987Z,100503.05
2019-04-11T13:19:04.901Z,100495.53
2019-04-11T13:21:54.560Z,100498.98
2019-04-11T13:24:56.610Z,100490.96
2019-04-11T13:27:36.356Z,100489.01
2019-04-11T13:30:16.799Z,100492.02
2019-04-11T13:32:58.941Z,100486.52
2019-04-11T13:35:49.155Z,100491.78
2019-04-11T13:38:30.119Z,100482.16
2019-04-11T13:41:20.267Z,100493.56
2019-04-11T13:44:01.824Z,100488.04
2019-04-11T13:46:56.190Z,100485.48
2019-04-11T13:49:39.487Z,100485.27
2019-04-11T13:52:33.296Z,100486.83
2019-04-11T13:55:11.619Z,100486.51
2019-04-11T13:58:11.484Z,100490.03
2019-04-11T14:01:01.303Z,100483.66
2019-04-11T14:03:58.832Z,100475.70
2019-04-11T14:06:32.994Z,100476.10
2019-04-11T14:09:25.887Z,100479.42
2019-04-11T14:12:04.796Z,100476.30
2019-04-11T14:14:40.967Z,100470.57
2019-04-11T14:17:24.692Z,100470.35
2019-04-11T14:20:04.411Z,100478.19
2019-04-11T14:22:56.765Z,100465.91
2019-04-11T14:25:49.556Z,100470.91
2019-04-11T14:28:27.116Z,100478.60
2019-04-11T14:31:22.656Z,100459.62
2019-04-11T14:34:21.374Z,100478.38
2019-04-11T14:37:05.464Z,100458.34
2019-04-11T14:39:45.213Z,100468.67
2019-04-11T14:42:26.581Z,100468.64
2019-04-11T14:44:59.327Z,100462.77
2019-04-11T14:47:40.238Z,100458.27
2019-04-11T14:50:13.536Z,100461.52
2019-04-11T14:52:52.575Z,100454.00
2019-04-11T14:55:26.582Z,100456.89
2019-04-11T14:58:23.530Z,100462.30
2019-04-11T15:01:12.851Z,100457.30
2019-04-11T15:04:00.325Z,100449.19
2019-04-11T15:06:39.461Z,100459.03
2019-04-11T15:09:32.173Z,100457.64
2019-04-11T15:12:11.613Z,100444.21
2019-04-11T15:15:14.701Z,100449.33
2019-04-11T15:17:50.168Z,100460.89
2019-04-11T15:20:36.437Z,100463.87
2019-04-11T15:23:33.394Z,100464.22
2019-04-11T15:26:38.925Z,100464.79
2019-04-11T15:29:27.226Z,100465.34
2019-04-11T15:32:21.573Z,100467.92
2019-04-11T15:35:02.251Z,100470.00
2019-04-11T15:37:58.690Z,100467.56
2019-04-11T15:40:36.058Z,100439.93
2019-04-11T15:43:28.413Z,100472.96
2019-04-11T15:46:06.802Z,100475.42
2019-04-11T15:49:00.082Z,100470.59
2019-04-11T15:51:42.114Z,100480.05
2019-04-11T15:54:42.014Z,100472.84
2019-04-11T15:57:26.876Z,100474.09
2019-04-11T16:00:19.723Z,100473.64
2019-04-11T16:03:10.279Z,100476.45
2019-04-11T16:05:48.937Z,100470.39
2019-04-11T16:08:26.368Z,100470.63
2019-04-11T16:11:12.957Z,100468.75
2019-04-11T16:13:52.629Z,100473.16
2019-04-11T16:16:35.399Z,100479.19
2019-04-11T16:19:14.793Z,100483.11
2019-04-11T16:22:01.803Z,100481.09
2019-04-11T16:24:34.494Z,100480.69
2019-04-11T16:27:26.675Z,100471.33
2019-04-11T16:30:04.610Z,100478.35
2019-04-11T16:32:40.313Z,100487.31
2019-04-11T16:35:26.045Z,100476.53
2019-04-11T16:38:00.965Z,100475.22
2019-04-11T16:40:39.058Z,100491.13
2019-04-11T16:43:13.884Z,100482.81
2019-04-11T16:45:54.592Z,100486.67
2019-04-11T16:48:27.647Z,100490.73
2019-04-11T16:51:01.828Z,100469.88
2019-04-11T16:53:36.098Z,100478.70
2019-04-11T16:56:12.583Z,100485.00
2019-04-11T16:58:55.865Z,100485.91
2019-04-11T17:01:28.649Z,100491.44
2019-04-11T17:04:02.513Z,100491.80
2019-04-11T17:06:49.367Z,100497.06
2019-04-11T17:09:30.260Z,100491.27
2019-04-11T17:12:03.387Z,100488.97
2019-04-11T17:14:36.483Z,100490.95
2019-04-11T17:17:14.992Z,100487.20
2019-04-11T17:19:48.156Z,100499.88
2019-04-11T17:22:21.712Z,100483.94
2019-04-11T17:24:59.380Z,100495.34
2019-04-11T17:27:31.989Z,100497.31
2019-04-11T17:30:07.893Z,100506.54
2019-04-11T17:32:40.490Z,100503.75
2019-04-11T17:35:15.291Z,100505.59
2019-04-11T17:37:48.744Z,100510.53
2019-04-11T17:40:21.174Z,100505.40
2019-04-11T17:42:53.789Z,100506.59
2019-04-11T17:45:26.882Z,100510.14
2019-04-11T17:47:59.458Z,100520.62
2019-04-11T17:50:32.763Z,100511.77
2019-04-11T17:53:08.220Z,100522.26
2019-04-11T17:55:40.886Z,100521.78
2019-04-11T17:58:13.683Z,100529.25
2019-04-11T18:00:52.252Z,100528.26
2019-04-11T18:03:24.919Z,100536.53
2019-04-11T18:05:58.176Z,100541.22
2019-04-11T18:08:32.139Z,100550.86
2019-04-11T18:11:06.156Z,100551.06
2019-04-11T18:13:38.762Z,100553.07
2019-04-11T18:16:13.151Z,100549.95
2019-04-11T18:18:46.302Z,100547.10
2019-04-11T18:21:19.217Z,100554.14
2019-04-11T18:23:53.573Z,100553.55
2019-04-11T18:26:26.351Z,100557.86
2019-04-11T18:29:00.412Z,100558.37
2019-04-11T18:31:34.110Z,100569.91
2019-04-11T18:34:08.769Z,100570.61
2019-04-11T18:36:52.378Z,100559.75
2019-04-11T18:39:27.701Z,100571.69
2019-04-11T18:42:01.545Z,100576.36
2019-04-11T18:44:35.128Z,100560.20
2019-04-11T18:47:07.919Z,100584.39
2019-04-11T18:49:41.326Z,100594.48
2019-04-11T18:52:19.873Z,100591.55
2019-04-11T18:54:58.093Z,100595.06
2019-04-11T18:57:31.093Z,100595.16
2019-04-11T19:00:14.225Z,100598.36
2019-04-11T19:02:50.155Z,100591.62
2019-04-11T19:05:28.843Z,100602.49
2019-04-11T19:08:04.409Z,100600.38
2019-04-11T19:10:38.120Z,100604.41
2019-04-11T19:13:11.584Z,100602.13
2019-04-11T19:15:46.472Z,100607.28
2019-04-11T19:18:23.233Z,100609.77
2019-04-11T19:20:57.855Z,100612.82
2019-04-11T19:23:30.555Z,100610.59
2019-04-11T19:26:03.200Z,100611.61
2019-04-11T19:28:36.890Z,100612.36
2019-04-11T19:31:12.172Z,100615.46
2019-04-11T19:33:45.026Z,100615.48
2019-04-11T19:36:18.836Z,100612.94
2019-04-11T19:38:53.126Z,100618.52
2019-04-11T19:41:26.295Z,100611.02
2019-04-11T19:43:59.435Z,100622.58
2019-04-11T19:46:32.271Z,100618.48
2019-04-11T19:49:05.039Z,100617.17
2019-04-11T19:51:40.434Z,100619.31
2019-04-11T19:54:13.067Z,100621.23
2019-04-11T19:56:50.868Z,100624.00
2019-04-11T19:59:23.470Z,100622.85
2019-04-11T20:01:56.048Z,100619.09
2019-04-11T20:04:32.707Z,100623.72
2019-04-11T20:07:09.170Z,100619.70
2019-04-11T20:09:42.013Z,100616.00
2019-04-11T20:12:15.302Z,100611.61
2019-04-11T20:14:48.072Z,100615.94
2019-04-11T20:17:20.757Z,100621.33
2019-04-11T20:20:01.184Z,100622.92
2019-04-11T20:22:39.291Z,100622.22
2019-04-11T20:25:15.954Z,100623.85
2019-04-11T20:27:50.686Z,100623.45
2019-04-11T20:30:25.392Z,100623.07
2019-04-11T20:33:26.609Z,100625.69
2019-04-11T20:36:02.007Z,100623.91
2019-04-11T20:38:36.362Z,100626.13
2019-04-11T20:41:09.253Z,100625.21
2019-04-11T20:43:43.180Z,100621.66
2019-04-11T20:46:17.437Z,100628.95
2019-04-11T20:48:50.156Z,100624.45
2019-04-11T20:51:22.829Z,100620.66
2019-04-11T20:53:55.849Z,100619.74
2019-04-11T20:56:30.228Z,100624.72
2019-04-11T20:59:03.162Z,100623.30
2019-04-11T21:01:36.200Z,100624.69
2019-04-11T21:04:11.409Z,100629.16
2019-04-11T21:06:44.016Z,100629.24
2019-04-11T21:09:17.029Z,100637.91
2019-04-11T21:11:49.569Z,100631.50
2019-04-11T21:14:22.420Z,100634.00
2019-04-11T21:16:55.563Z,100633.44
2019-04-11T21:19:28.354Z,100637.56
2019-04-11T21:22:00.976Z,100640.12
2019-04-11T21:24:35.545Z,100639.11
2019-04-11T21:27:08.833Z,100645.84
2019-04-11T21:29:42.346Z,100651.42
2019-04-11T21:32:15.335Z,100649.22
2019-04-11T21:34:49.427Z,100653.84
2019-04-11T21:37:25.344Z,100656.02
2019-04-11T21:39:58.390Z,100655.20
2019-04-11T21:42:35.878Z,100660.80
2019-04-11T21:45:13.986Z,100650.95
2019-04-11T21:47:47.167Z,100659.14
2019-04-11T21:50:19.766Z,100663.04
2019-04-11T21:52:52.885Z,100661.56
2019-04-11T21:55:25.788Z,100660.33
2019-04-11T21:57:58.461Z,100666.06
2019-04-11T22:00:42.666Z,100666.11
2019-04-11T22:03:15.709Z,100661.70
2019-04-11T22:05:49.912Z,100666.30
2019-04-11T22:08:22.965Z,100663.72
2019-04-11T22:10:55.499Z,100663.94
2019-04-11T22:13:28.487Z,100664.66
2019-04-11T22:16:01.650Z,100661.65
2019-04-11T22:18:34.466Z,100656.83
2019-04-11T22:21:07.047Z,100664.25
2019-04-11T22:23:48.591Z,100663.69
2019-04-11T22:26:22.043Z,100669.03
2019-04-11T22:28:55.223Z,100670.31
2019-04-11T22:31:29.242Z,100674.95
2019-04-11T22:34:11.780Z,100678.63
2019-04-11T22:36:44.908Z,100681.58
2019-04-11T22:39:18.802Z,100685.03
2019-04-11T22:41:51.342Z,100678.70
2019-04-11T22:44:23.976Z,100680.40
2019-04-11T22:46:57.968Z,100675.95
2019-04-11T22:49:30.564Z,100679.40
2019-04-11T22:52:03.160Z,100677.26
2019-04-11T22:54:36.899Z,100677.92
2019-04-11T22:57:11.684Z,100677.01
2019-04-11T22:59:45.405Z,100676.20
2019-04-11T23:02:26.795Z,100678.63
2019-04-11T23:04:59.368Z,100677.64
2019-04-11T23:07:32.158Z,100675.52
2019-04-11T23:10:05.527Z,100673.24
2019-04-11T23:12:38.257Z,100675.75
2019-04-11T23:15:14.722Z,100677.70
2019-04-11T23:17:48.227Z,100678.95
2019-04-11T23:20:41.887Z,100681.25
2019-04-11T23:23:17.075Z,100681.97
2019-04-11T23:25:50.211Z,100683.38
2019-04-11T23:28:23.599Z,100686.12
2019-04-11T23:30:56.512Z,100689.88
2019-04-11T23:33:29.081Z,100685.12
2019-04-11T23:36:03.083Z,100692.87
2019-04-11T23:38:36.989Z,100694.42
2019-04-11T23:41:09.623Z,100696.52
2019-04-11T23:43:42.691Z,100694.22
2019-04-11T23:46:15.235Z,100697.02
2019-04-11T23:48:47.834Z,100700.48
2019-04-11T23:51:22.935Z,100700.19
2019-04-11T23:53:59.764Z,100706.88
2019-04-11T23:56:32.485Z,100705.37
2019-04-11T23:59:05.845Z,100702.25
